createdAt,value
2022-11-09T00:01:29.061Z,78.92
2022-11-09T00:04:04.844Z,78.89
2022-11-09T00:06:33.987Z,78.86
2022-11-09T00:09:07.850Z,78.87
2022-11-09T00:11:38.044Z,78.87
2022-11-09T00:14:06.271Z,78.87
2022-11-09T00:16:34.239Z,78.88
2022-11-09T00:19:02.067Z,78.88
2022-11-09T00:21:30.005Z,78.90
2022-11-09T00:23:57.929Z,78.90
2022-11-09T00:26:26.326Z,78.91
2022-11-09T00:28:54.261Z,78.91
2022-11-09T00:31:24.195Z,78.90
2022-11-09T00:33:55.554Z,78.89
2022-11-09T00:36:25.755Z,78.91
2022-11-09T00:39:00.385Z,78.88
2022-11-09T00:41:28.342Z,78.88
2022-11-09T00:43:56.308Z,78.90
2022-11-09T00:46:24.565Z,79.00
2022-11-09T00:48:56.103Z,78.74
2022-11-09T00:51:24.182Z,78.58
2022-11-09T00:53:54.733Z,79.99
2022-11-09T00:56:23.300Z,77.68
2022-11-09T00:58:55.729Z,76.00
2022-11-09T01:01:24.345Z,75.89
2022-11-09T01:03:52.182Z,76.08
2022-11-09T01:06:25.619Z,76.52
2022-11-09T01:08:53.794Z,76.58
2022-11-09T01:11:22.993Z,76.35
2022-11-09T01:13:51.121Z,76.49
2022-11-09T01:16:22.330Z,76.63
2022-11-09T01:18:56.757Z,76.78
2022-11-09T01:21:26.611Z,77.01
2022-11-09T01:23:55.713Z,77.13
2022-11-09T01:26:23.527Z,77.26
2022-11-09T01:28:51.331Z,77.37
2022-11-09T01:31:21.594Z,77.50
2022-11-09T01:33:49.831Z,78.19
2022-11-09T01:36:23.005Z,79.61
2022-11-09T01:38:51.452Z,76.64
2022-11-09T01:41:28.169Z,72.86
2022-11-09T01:44:14.760Z,68.75
2022-11-09T01:46:49.037Z,65.91
2022-11-09T01:49:42.696Z,64.83
2022-11-09T01:52:21.846Z,64.53
2022-11-09T01:54:56.358Z,62.88
2022-11-09T01:58:08.733Z,61.32
2022-11-09T02:00:39.080Z,59.09
2022-11-09T02:03:16.014Z,60.14
2022-11-09T02:05:44.275Z,61.61
2022-11-09T02:08:15.908Z,63.72
2022-11-09T02:11:10.795Z,64.45
2022-11-09T02:13:44.139Z,61.76
2022-11-09T02:16:13.424Z,61.47
2022-11-09T02:18:57.488Z,62.51
2022-11-09T02:21:27.827Z,63.32
2022-11-09T02:23:56.214Z,65.08
2022-11-09T02:26:33.608Z,65.28
2022-11-09T02:29:05.744Z,62.51
2022-11-09T02:31:38.916Z,59.77
2022-11-09T02:34:17.008Z,58.26
2022-11-09T02:36:45.116Z,59.09
2022-11-09T02:39:15.652Z,60.56
2022-11-09T02:41:52.170Z,62.05
2022-11-09T02:44:20.380Z,64.69
2022-11-09T02:46:50.787Z,64.05
2022-11-09T02:49:18.571Z,60.41
2022-11-09T02:51:46.514Z,59.98
2022-11-09T02:54:14.728Z,60.93
2022-11-09T02:56:43.312Z,61.89
2022-11-09T02:59:11.118Z,62.68
2022-11-09T03:01:39.077Z,63.43
2022-11-09T03:04:06.985Z,64.18
2022-11-09T03:06:35.158Z,64.88
2022-11-09T03:09:09.918Z,65.54
2022-11-09T03:11:40.066Z,66.09
2022-11-09T03:14:09.908Z,66.69
2022-11-09T03:16:39.246Z,67.35
2022-11-09T03:19:07.456Z,67.87
2022-11-09T03:21:35.831Z,68.41
2022-11-09T03:24:03.847Z,68.83
2022-11-09T03:26:31.642Z,69.35
2022-11-09T03:28:59.609Z,69.65
2022-11-09T03:31:27.402Z,69.94
2022-11-09T03:33:55.317Z,70.43
2022-11-09T03:36:23.202Z,70.72
2022-11-09T03:38:50.993Z,71.02
2022-11-09T03:41:19.067Z,71.29
2022-11-09T03:43:46.898Z,71.57
2022-11-09T03:46:14.864Z,71.84
2022-11-09T03:48:42.819Z,72.04
2022-11-09T03:51:10.775Z,72.26
2022-11-09T03:53:38.557Z,72.49
2022-11-09T03:56:06.895Z,72.63
2022-11-09T03:58:34.764Z,72.83
2022-11-09T04:01:02.710Z,73.12
2022-11-09T04:03:30.531Z,73.23
2022-11-09T04:05:59.432Z,73.39
2022-11-09T04:08:27.592Z,73.50
2022-11-09T04:10:55.676Z,73.61
2022-11-09T04:13:23.449Z,73.74
2022-11-09T04:15:51.250Z,73.91
2022-11-09T04:18:19.158Z,74.03
2022-11-09T04:20:47.071Z,74.15
2022-11-09T04:23:15.075Z,74.21
2022-11-09T04:25:43.219Z,74.22
2022-11-09T04:28:12.921Z,74.37
2022-11-09T04:30:40.792Z,74.51
2022-11-09T04:33:09.527Z,74.57
2022-11-09T04:35:38.423Z,74.71
2022-11-09T04:38:08.697Z,74.87
2022-11-09T04:40:36.932Z,75.01
2022-11-09T04:43:07.496Z,75.13
2022-11-09T04:45:35.827Z,75.28
2022-11-09T04:48:06.945Z,75.38
2022-11-09T04:50:35.168Z,75.49
2022-11-09T04:53:12.472Z,75.51
2022-11-09T04:55:40.858Z,75.52
2022-11-09T04:58:09.268Z,75.66
2022-11-09T05:00:37.703Z,75.78
2022-11-09T05:03:06.734Z,75.88
2022-11-09T05:05:36.233Z,76.01
2022-11-09T05:08:05.359Z,76.23
2022-11-09T05:10:33.619Z,76.41
2022-11-09T05:13:05.304Z,76.45
2022-11-09T05:15:34.733Z,76.53
2022-11-09T05:18:03.770Z,76.61
2022-11-09T05:20:32.518Z,76.72
2022-11-09T05:23:20.009Z,76.84
2022-11-09T05:25:48.340Z,76.84
2022-11-09T05:28:16.238Z,76.89
2022-11-09T05:30:44.030Z,77.00
2022-11-09T05:33:11.803Z,76.86
2022-11-09T05:35:39.656Z,76.70
2022-11-09T05:38:07.433Z,76.58
2022-11-09T05:40:35.278Z,76.55
2022-11-09T05:43:03.107Z,76.46
2022-11-09T05:45:46.505Z,76.43
2022-11-09T05:48:17.259Z,76.50
2022-11-09T05:50:45.516Z,76.52
2022-11-09T05:53:13.352Z,76.49
2022-11-09T05:55:41.319Z,76.50
2022-11-09T05:58:09.728Z,76.47
2022-11-09T06:00:37.912Z,76.52
2022-11-09T06:03:10.876Z,76.43
2022-11-09T06:05:41.009Z,76.29
2022-11-09T06:08:14.258Z,76.32
2022-11-09T06:10:43.243Z,76.26
2022-11-09T06:13:11.526Z,76.19
2022-11-09T06:15:39.346Z,76.08
2022-11-09T06:18:07.243Z,76.40
2022-11-09T06:20:35.312Z,76.53
2022-11-09T06:23:04.333Z,76.64
2022-11-09T06:25:33.462Z,76.71
2022-11-09T06:28:01.724Z,76.72
2022-11-09T06:30:29.970Z,76.79
2022-11-09T06:33:02.284Z,76.77
2022-11-09T06:35:30.262Z,76.70
2022-11-09T06:38:00.159Z,76.61
2022-11-09T06:40:28.908Z,76.47
2022-11-09T06:42:59.271Z,76.30
2022-11-09T06:45:28.703Z,76.17
2022-11-09T06:48:03.057Z,76.11
2022-11-09T06:50:33.855Z,76.18
2022-11-09T06:53:05.034Z,76.20
2022-11-09T06:55:35.134Z,76.22
2022-11-09T06:58:08.863Z,76.24
2022-11-09T07:00:37.377Z,76.22
2022-11-09T07:03:05.309Z,76.21
2022-11-09T07:05:33.436Z,76.23
2022-11-09T07:08:01.326Z,76.31
2022-11-09T07:10:29.247Z,76.39
2022-11-09T07:12:59.386Z,76.42
2022-11-09T07:15:27.188Z,76.43
2022-11-09T07:17:59.676Z,76.40
2022-11-09T07:20:28.696Z,76.40
2022-11-09T07:22:56.689Z,76.40
2022-11-09T07:25:27.369Z,76.42
2022-11-09T07:27:55.543Z,76.36
2022-11-09T07:30:23.378Z,76.28
2022-11-09T07:33:08.772Z,76.33
2022-11-09T07:35:38.100Z,76.24
2022-11-09T07:38:06.561Z,76.12
2022-11-09T07:40:34.902Z,76.04
2022-11-09T07:43:05.877Z,76.00
2022-11-09T07:45:35.549Z,75.97
2022-11-09T07:48:10.273Z,75.92
2022-11-09T07:50:40.169Z,75.82
2022-11-09T07:53:10.321Z,75.65
2022-11-09T07:55:38.456Z,75.57
2022-11-09T07:58:15.713Z,75.49
2022-11-09T08:00:46.839Z,75.26
2022-11-09T08:03:14.721Z,75.18
2022-11-09T08:05:42.543Z,75.04
2022-11-09T08:08:12.331Z,74.90
2022-11-09T08:10:40.556Z,74.68
2022-11-09T08:13:14.444Z,74.33
2022-11-09T08:15:42.775Z,74.08
2022-11-09T08:18:17.861Z,73.73
2022-11-09T08:20:46.150Z,73.58
2022-11-09T08:23:16.726Z,73.26
2022-11-09T08:25:44.771Z,73.19
2022-11-09T08:28:15.032Z,73.07
2022-11-09T08:30:44.459Z,72.89
2022-11-09T08:33:13.115Z,72.69
2022-11-09T08:35:41.019Z,72.69
2022-11-09T08:38:09.651Z,72.64
2022-11-09T08:40:37.697Z,72.44
2022-11-09T08:43:08.682Z,72.15
2022-11-09T08:45:39.297Z,71.78
2022-11-09T08:48:09.046Z,71.58
2022-11-09T08:50:37.635Z,71.58
2022-11-09T08:53:06.018Z,71.43
2022-11-09T08:55:35.036Z,71.12
2022-11-09T08:58:04.306Z,71.09
2022-11-09T09:00:32.298Z,71.04
2022-11-09T09:03:05.566Z,70.84
2022-11-09T09:05:38.520Z,70.45
2022-11-09T09:08:07.133Z,69.96
2022-11-09T09:10:35.723Z,69.77
2022-11-09T09:13:04.354Z,69.45
2022-11-09T09:15:32.498Z,69.10
2022-11-09T09:18:02.331Z,68.81
2022-11-09T09:20:30.462Z,68.65
2022-11-09T09:23:00.247Z,68.48
2022-11-09T09:25:28.214Z,67.81
2022-11-09T09:27:56.392Z,67.36
2022-11-09T09:30:24.537Z,67.16
2022-11-09T09:32:52.426Z,66.89
2022-11-09T09:35:20.196Z,66.75
2022-11-09T09:37:48.541Z,66.62
2022-11-09T09:41:09.223Z,66.73
2022-11-09T09:43:43.572Z,67.00
2022-11-09T09:46:43.148Z,66.56
2022-11-09T09:49:20.782Z,66.55
2022-11-09T09:52:29.489Z,66.32
2022-11-09T09:55:16.501Z,66.23
2022-11-09T09:57:49.062Z,66.31
2022-11-09T10:00:27.974Z,66.26
2022-11-09T10:02:55.840Z,66.29
2022-11-09T10:05:37.904Z,66.32
2022-11-09T10:08:31.761Z,66.58
2022-11-09T10:11:27.546Z,66.75
2022-11-09T10:14:38.697Z,67.11
2022-11-09T10:17:29.560Z,67.05
2022-11-09T10:20:15.819Z,66.68
2022-11-09T10:23:36.354Z,66.12
2022-11-09T10:26:41.712Z,64.86
2022-11-09T10:29:41.006Z,63.99
2022-11-09T10:32:17.810Z,62.30
2022-11-09T10:35:14.972Z,60.54
2022-11-09T10:37:52.971Z,58.15
2022-11-09T10:40:34.255Z,58.18
2022-11-09T10:43:10.355Z,57.47
2022-11-09T10:45:41.159Z,57.56
2022-11-09T10:48:12.786Z,57.32
2022-11-09T10:50:47.370Z,57.82
2022-11-09T10:53:24.979Z,58.14
2022-11-09T10:56:21.777Z,58.78
2022-11-09T10:58:52.685Z,59.51
2022-11-09T11:01:24.274Z,60.08
2022-11-09T11:03:54.535Z,60.58
2022-11-09T11:06:22.354Z,60.48
2022-11-09T11:09:14.962Z,60.70
2022-11-09T11:11:42.977Z,60.90
2022-11-09T11:14:35.284Z,60.97
2022-11-09T11:17:03.215Z,61.25
2022-11-09T11:19:38.692Z,61.57
2022-11-09T11:22:12.769Z,62.08
2022-11-09T11:24:51.916Z,62.39
2022-11-09T11:27:32.291Z,63.00
2022-11-09T11:30:10.690Z,63.15
2022-11-09T11:32:38.545Z,62.53
2022-11-09T11:35:22.996Z,62.68
2022-11-09T11:38:17.335Z,62.50
2022-11-09T11:41:04.143Z,62.36
2022-11-09T11:43:58.131Z,62.47
2022-11-09T11:46:53.179Z,62.26
2022-11-09T11:49:50.528Z,62.07
2022-11-09T11:52:45.035Z,61.82
2022-11-09T11:55:59.990Z,61.98
2022-11-09T11:58:30.901Z,61.69
2022-11-09T12:01:54.376Z,61.49
2022-11-09T12:04:59.557Z,61.08
2022-11-09T12:07:52.251Z,61.12
2022-11-09T12:10:41.171Z,60.68
2022-11-09T12:13:25.573Z,60.53
2022-11-09T12:16:36.395Z,60.54
2022-11-09T12:19:35.281Z,59.96
2022-11-09T12:22:41.878Z,60.29
2022-11-09T12:25:35.077Z,60.37
2022-11-09T12:28:22.120Z,60.20
2022-11-09T12:30:59.420Z,60.00
2022-11-09T12:33:45.519Z,59.85
2022-11-09T12:36:20.907Z,59.79
2022-11-09T12:39:06.653Z,60.11
2022-11-09T12:41:37.658Z,60.13
2022-11-09T12:44:17.410Z,60.16
2022-11-09T12:47:00.746Z,60.02
2022-11-09T12:49:37.618Z,60.21
2022-11-09T12:52:12.072Z,60.47
2022-11-09T12:54:46.904Z,60.42
2022-11-09T12:57:22.625Z,60.30
2022-11-09T12:59:54.299Z,60.59
2022-11-09T13:02:27.458Z,60.72
2022-11-09T13:05:31.243Z,60.72
2022-11-09T13:08:03.880Z,61.05
2022-11-09T13:10:37.593Z,61.04
2022-11-09T13:13:11.687Z,61.35
2022-11-09T13:16:04.413Z,61.71
2022-11-09T13:18:35.727Z,62.14
2022-11-09T13:21:26.826Z,62.48
2022-11-09T13:24:05.166Z,62.85
2022-11-09T13:26:34.793Z,63.24
2022-11-09T13:29:14.851Z,63.31
2022-11-09T13:32:02.199Z,63.45
2022-11-09T13:34:48.913Z,63.83
2022-11-09T13:37:41.941Z,64.08
2022-11-09T13:40:31.640Z,64.38
2022-11-09T13:43:04.227Z,64.88
2022-11-09T13:45:50.359Z,65.27
2022-11-09T13:48:35.903Z,65.55
2022-11-09T13:51:35.367Z,65.88
2022-11-09T13:54:08.498Z,66.13
2022-11-09T13:56:41.248Z,66.16
2022-11-09T13:59:28.165Z,66.34
2022-11-09T14:01:59.201Z,66.73
2022-11-09T14:04:47.559Z,67.07
2022-11-09T14:07:27.877Z,67.02
2022-11-09T14:10:46.188Z,66.57
2022-11-09T14:14:15.433Z,66.36
2022-11-09T14:17:03.739Z,66.27
2022-11-09T14:20:06.896Z,65.94
2022-11-09T14:22:40.240Z,65.74
2022-11-09T14:25:20.661Z,66.11
2022-11-09T14:27:57.499Z,66.53
2022-11-09T14:30:29.347Z,66.87
2022-11-09T14:32:59.018Z,67.27
2022-11-09T14:35:37.533Z,67.52
2022-11-09T14:38:24.093Z,67.68
2022-11-09T14:40:53.566Z,67.68
2022-11-09T14:43:43.186Z,67.66
2022-11-09T14:46:24.138Z,67.58
2022-11-09T14:49:00.071Z,67.41
2022-11-09T14:51:40.144Z,67.48
2022-11-09T14:54:13.099Z,67.42
2022-11-09T14:56:41.672Z,67.40
2022-11-09T14:59:14.616Z,67.24
2022-11-09T15:02:01.434Z,67.12
2022-11-09T15:04:52.827Z,66.98
2022-11-09T15:07:27.063Z,67.02
2022-11-09T15:10:06.643Z,67.40
2022-11-09T15:12:36.245Z,67.71
2022-11-09T15:15:07.160Z,67.94
2022-11-09T15:17:37.609Z,68.05
2022-11-09T15:20:08.522Z,67.99
2022-11-09T15:22:59.095Z,67.82
2022-11-09T15:25:31.486Z,67.66
2022-11-09T15:28:10.422Z,67.51
2022-11-09T15:31:13.559Z,67.51
2022-11-09T15:33:53.499Z,67.65
2022-11-09T15:36:35.112Z,67.84
2022-11-09T15:39:15.780Z,68.03
2022-11-09T15:41:43.813Z,68.30
2022-11-09T15:44:17.249Z,68.42
2022-11-09T15:46:51.987Z,68.73
2022-11-09T15:49:28.755Z,68.75
2022-11-09T15:51:57.080Z,68.89
2022-11-09T15:54:25.196Z,69.14
2022-11-09T15:56:53.685Z,69.56
2022-11-09T15:59:29.950Z,70.15
2022-11-09T16:01:58.133Z,70.84
2022-11-09T16:04:26.386Z,71.33
2022-11-09T16:06:54.714Z,71.74
2022-11-09T16:09:26.642Z,71.98
2022-11-09T16:11:55.433Z,72.26
2022-11-09T16:14:23.974Z,72.56
2022-11-09T16:16:54.229Z,72.78
2022-11-09T16:19:24.563Z,72.92
2022-11-09T16:21:53.903Z,73.07
2022-11-09T16:24:30.267Z,73.18
2022-11-09T16:26:58.887Z,73.20
2022-11-09T16:29:29.043Z,73.33
2022-11-09T16:32:01.512Z,73.38
2022-11-09T16:34:32.884Z,73.41
2022-11-09T16:37:01.932Z,73.60
2022-11-09T16:39:32.416Z,73.72
2022-11-09T16:42:02.567Z,73.90
2022-11-09T16:44:34.256Z,74.11
2022-11-09T16:47:03.660Z,74.11
2022-11-09T16:49:31.914Z,74.00
2022-11-09T16:51:59.999Z,73.76
2022-11-09T16:54:27.990Z,73.18
2022-11-09T16:56:56.153Z,73.14
2022-11-09T16:59:24.617Z,73.11
2022-11-09T17:02:00.148Z,73.04
2022-11-09T17:04:28.108Z,72.92
2022-11-09T17:06:56.231Z,72.87
2022-11-09T17:09:24.396Z,72.73
2022-11-09T17:11:52.223Z,72.66
2022-11-09T17:14:20.023Z,72.70
2022-11-09T17:16:49.217Z,72.71
2022-11-09T17:19:17.109Z,72.72
2022-11-09T17:21:44.967Z,72.79
2022-11-09T17:24:13.462Z,72.81
2022-11-09T17:26:41.296Z,72.93
2022-11-09T17:29:09.169Z,73.14
2022-11-09T17:31:38.228Z,73.25
2022-11-09T17:34:05.989Z,73.35
2022-11-09T17:37:02.377Z,73.42
2022-11-09T17:39:22.826Z,73.49
2022-11-09T17:41:50.670Z,73.61
2022-11-09T17:44:18.479Z,73.67
2022-11-09T17:46:47.822Z,73.71
2022-11-09T17:49:15.739Z,73.82
2022-11-09T17:51:43.520Z,73.68
2022-11-09T17:54:11.334Z,73.70
2022-11-09T17:56:39.927Z,73.70
2022-11-09T17:59:07.981Z,73.78
2022-11-09T18:01:41.229Z,73.61
2022-11-09T18:04:10.983Z,73.47
2022-11-09T18:06:39.144Z,73.47
2022-11-09T18:11:55.096Z,73.66
2022-11-09T18:14:22.892Z,73.56
2022-11-09T18:16:50.880Z,73.33
2022-11-09T18:19:18.760Z,73.16
2022-11-09T18:21:47.496Z,73.06
2022-11-09T18:24:15.409Z,73.02
2022-11-09T18:26:43.229Z,73.00
2022-11-09T18:29:11.090Z,73.02
2022-11-09T18:31:38.961Z,73.14
2022-11-09T18:34:06.870Z,73.21
2022-11-09T18:36:34.694Z,73.25
2022-11-09T18:39:03.461Z,73.26
2022-11-09T18:41:31.479Z,73.22
2022-11-09T18:43:59.462Z,73.16
2022-11-09T18:46:30.851Z,73.08
2022-11-09T18:48:59.107Z,72.92
2022-11-09T18:51:27.179Z,72.82
2022-11-09T18:53:55.087Z,72.78
2022-11-09T18:56:25.048Z,72.72
2022-11-09T18:58:55.373Z,72.68
2022-11-09T19:01:24.977Z,72.62
2022-11-09T19:03:58.953Z,72.48
2022-11-09T19:06:28.289Z,72.44
2022-11-09T19:09:15.144Z,72.30
2022-11-09T19:11:45.686Z,72.08
2022-11-09T19:14:13.543Z,71.80
2022-11-09T19:16:41.564Z,71.84
2022-11-09T19:19:13.644Z,71.96
2022-11-09T19:21:54.914Z,72.03
2022-11-09T19:24:25.308Z,72.20
2022-11-09T19:26:55.785Z,72.28
2022-11-09T19:29:23.712Z,72.31
2022-11-09T19:31:51.929Z,72.31
2022-11-09T19:34:21.863Z,72.40
2022-11-09T19:36:50.220Z,72.49
2022-11-09T19:39:18.521Z,72.59
2022-11-09T19:41:46.508Z,72.79
2022-11-09T19:44:15.066Z,72.95
2022-11-09T19:46:43.176Z,72.96
2022-11-09T19:49:11.262Z,73.04
2022-11-09T19:51:39.778Z,73.17
2022-11-09T19:54:11.348Z,73.27
2022-11-09T19:56:39.485Z,73.37
2022-11-09T19:59:07.851Z,73.46
2022-11-09T20:01:35.901Z,73.56
2022-11-09T20:04:09.082Z,73.86
2022-11-09T20:06:39.789Z,73.66
2022-11-09T20:09:07.953Z,73.60
2022-11-09T20:11:54.308Z,73.69
2022-11-09T20:14:22.601Z,73.88
2022-11-09T20:16:51.148Z,74.00
2022-11-09T20:19:19.172Z,74.22
2022-11-09T20:21:49.707Z,74.22
2022-11-09T20:24:17.561Z,74.12
2022-11-09T20:26:45.481Z,74.15
2022-11-09T20:29:13.426Z,74.17
2022-11-09T20:31:41.615Z,74.19
2022-11-09T20:34:09.839Z,74.20
2022-11-09T20:36:38.130Z,74.22
2022-11-09T20:39:06.333Z,74.30
2022-11-09T20:41:40.291Z,74.34
2022-11-09T20:44:10.307Z,74.39
2022-11-09T20:46:38.719Z,74.44
2022-11-09T20:49:06.645Z,74.43
2022-11-09T20:51:34.550Z,74.39
2022-11-09T20:54:07.247Z,74.36
2022-11-09T20:56:37.400Z,74.33
2022-11-09T20:59:05.517Z,74.32
2022-11-09T21:01:33.755Z,74.29
2022-11-09T21:04:01.764Z,74.25
2022-11-09T21:06:32.153Z,74.27
2022-11-09T21:09:05.636Z,74.30
2022-11-09T21:11:36.267Z,74.36
2022-11-09T21:14:04.265Z,74.49
2022-11-09T21:16:32.285Z,74.70
2022-11-09T21:19:00.157Z,74.86
2022-11-09T21:21:32.059Z,74.92
2022-11-09T21:24:21.478Z,74.91
2022-11-09T21:27:07.956Z,74.89
2022-11-09T21:29:50.925Z,74.88
2022-11-09T21:32:20.379Z,74.85
2022-11-09T21:34:48.919Z,74.87
2022-11-09T21:37:17.408Z,74.87
2022-11-09T21:39:46.172Z,74.87
2022-11-09T21:42:14.360Z,74.90
2022-11-09T21:44:42.229Z,74.92
2022-11-09T21:47:10.232Z,74.89
2022-11-09T21:49:38.109Z,74.85
2022-11-09T21:52:06.134Z,74.83
2022-11-09T21:54:34.053Z,74.80
2022-11-09T21:57:01.960Z,74.78
2022-11-09T21:59:29.914Z,74.75
2022-11-09T22:01:57.998Z,74.68
2022-11-09T22:04:26.103Z,74.64
2022-11-09T22:06:54.025Z,74.59
2022-11-09T22:09:21.879Z,74.55
2022-11-09T22:12:08.511Z,74.59
2022-11-09T22:14:54.899Z,74.57
2022-11-09T22:17:22.954Z,74.67
2022-11-09T22:20:09.475Z,74.80
2022-11-09T22:22:37.443Z,74.87
2022-11-09T22:25:06.120Z,74.91
2022-11-09T22:27:34.321Z,74.93
2022-11-09T22:30:02.379Z,74.94
2022-11-09T22:32:30.327Z,74.93
2022-11-09T22:34:58.122Z,74.92
2022-11-09T22:37:26.063Z,74.88
2022-11-09T22:39:54.018Z,74.88
2022-11-09T22:42:21.894Z,74.91
2022-11-09T22:44:49.766Z,74.92
2022-11-09T22:47:17.719Z,74.91
2022-11-09T22:49:45.599Z,74.87
2022-11-09T22:52:13.570Z,74.84
2022-11-09T22:54:41.352Z,74.83
2022-11-09T22:57:09.293Z,74.81
2022-11-09T22:59:37.196Z,74.82
2022-11-09T23:02:05.248Z,74.81
2022-11-09T23:04:33.294Z,74.80
2022-11-09T23:07:01.201Z,74.82
2022-11-09T23:09:29.105Z,74.80
2022-11-09T23:11:57.014Z,74.77
2022-11-09T23:14:43.321Z,74.76
2022-11-09T23:17:31.107Z,74.74
2022-11-09T23:19:59.006Z,74.76
2022-11-09T23:22:26.948Z,74.74
2022-11-09T23:25:13.241Z,74.73
2022-11-09T23:27:41.237Z,74.73
2022-11-09T23:30:09.557Z,74.72
2022-11-09T23:32:37.397Z,74.73
2022-11-09T23:35:06.093Z,74.78
2022-11-09T23:37:33.989Z,74.83
2022-11-09T23:40:01.818Z,74.87
2022-11-09T23:42:29.701Z,74.98
2022-11-09T23:44:57.555Z,75.04
2022-11-09T23:47:25.686Z,75.17
2022-11-09T23:49:53.558Z,75.22
2022-11-09T23:52:21.334Z,75.28
2022-11-09T23:54:49.299Z,75.37
2022-11-09T23:57:17.190Z,75.46
2022-11-09T23:59:45.058Z,75.59
